sensor_id;sensor_type;location;lat;lon;timestamp;P1;durP1;ratioP1;P2;durP2;ratioP2
55134;SDS011;41031;44.750;11.308;2022-11-20T00:01:08;8.97;;;8.00;;
55134;SDS011;41031;44.750;11.308;2022-11-20T00:03:39;9.43;;;7.53;;
55134;SDS011;41031;44.750;11.308;2022-11-20T00:06:09;9.10;;;7.13;;
55134;SDS011;41031;44.750;11.308;2022-11-20T00:08:38;11.70;;;7.67;;
55134;SDS011;41031;44.750;11.308;2022-11-20T00:11:06;9.73;;;7.60;;
55134;SDS011;41031;44.750;11.308;2022-11-20T00:13:44;11.10;;;8.77;;
55134;SDS011;41031;44.750;11.308;2022-11-20T00:16:14;8.63;;;7.67;;
55134;SDS011;41031;44.750;11.308;2022-11-20T00:18:43;9.27;;;7.97;;
55134;SDS011;41031;44.750;11.308;2022-11-20T00:21:14;8.83;;;7.50;;
55134;SDS011;41031;44.750;11.308;2022-11-20T00:23:43;11.10;;;8.00;;
55134;SDS011;41031;44.750;11.308;2022-11-20T00:26:15;8.90;;;7.17;;
55134;SDS011;41031;44.750;11.308;2022-11-20T00:28:43;8.83;;;7.30;;
55134;SDS011;41031;44.750;11.308;2022-11-20T00:31:16;8.50;;;6.60;;
55134;SDS011;41031;44.750;11.308;2022-11-20T00:33:43;9.93;;;6.50;;
55134;SDS011;41031;44.750;11.308;2022-11-20T00:36:12;8.00;;;6.27;;
55134;SDS011;41031;44.750;11.308;2022-11-20T00:38:40;9.53;;;6.47;;
55134;SDS011;41031;44.750;11.308;2022-11-20T00:41:08;8.10;;;7.17;;
55134;SDS011;41031;44.750;11.308;2022-11-20T00:43:37;7.93;;;6.30;;
55134;SDS011;41031;44.750;11.308;2022-11-20T00:46:05;7.77;;;6.50;;
55134;SDS011;41031;44.750;11.308;2022-11-20T00:48:34;9.27;;;7.60;;
55134;SDS011;41031;44.750;11.308;2022-11-20T00:51:01;8.37;;;6.83;;
55134;SDS011;41031;44.750;11.308;2022-11-20T00:53:28;11.10;;;7.93;;
55134;SDS011;41031;44.750;11.308;2022-11-20T00:55:59;8.20;;;6.83;;
55134;SDS011;41031;44.750;11.308;2022-11-20T00:58:29;10.00;;;7.60;;
55134;SDS011;41031;44.750;11.308;2022-11-20T01:01:03;8.20;;;6.77;;
55134;SDS011;41031;44.750;11.308;2022-11-20T01:03:36;9.47;;;7.67;;
55134;SDS011;41031;44.750;11.308;2022-11-20T01:06:07;8.63;;;7.50;;
55134;SDS011;41031;44.750;11.308;2022-11-20T01:08:38;9.43;;;7.10;;
55134;SDS011;41031;44.750;11.308;2022-11-20T01:11:07;10.00;;;6.87;;
55134;SDS011;41031;44.750;11.308;2022-11-20T01:13:36;12.17;;;6.90;;
55134;SDS011;41031;44.750;11.308;2022-11-20T01:16:05;8.73;;;7.70;;
55134;SDS011;41031;44.750;11.308;2022-11-20T01:18:35;13.80;;;7.40;;
55134;SDS011;41031;44.750;11.308;2022-11-20T01:21:03;16.40;;;10.97;;
55134;SDS011;41031;44.750;11.308;2022-11-20T01:23:33;16.87;;;13.10;;
55134;SDS011;41031;44.750;11.308;2022-11-20T01:26:02;20.40;;;13.80;;
55134;SDS011;41031;44.750;11.308;2022-11-20T01:28:30;23.00;;;14.47;;
55134;SDS011;41031;44.750;11.308;2022-11-20T01:30:58;20.53;;;14.47;;
55134;SDS011;41031;44.750;11.308;2022-11-20T01:33:25;21.10;;;13.67;;
55134;SDS011;41031;44.750;11.308;2022-11-20T01:35:53;23.17;;;14.87;;
55134;SDS011;41031;44.750;11.308;2022-11-20T01:38:29;23.43;;;15.60;;
55134;SDS011;41031;44.750;11.308;2022-11-20T01:40:56;19.80;;;14.43;;
55134;SDS011;41031;44.750;11.308;2022-11-20T01:43:23;26.33;;;16.53;;
55134;SDS011;41031;44.750;11.308;2022-11-20T01:48:48;24.67;;;18.00;;
55134;SDS011;41031;44.750;11.308;2022-11-20T01:51:27;26.83;;;16.73;;
55134;SDS011;41031;44.750;11.308;2022-11-20T01:54:03;26.40;;;16.50;;
55134;SDS011;41031;44.750;11.308;2022-11-20T01:56:34;26.17;;;16.63;;
55134;SDS011;41031;44.750;11.308;2022-11-20T01:59:05;28.50;;;17.27;;
55134;SDS011;41031;44.750;11.308;2022-11-20T02:01:34;28.50;;;18.10;;
55134;SDS011;41031;44.750;11.308;2022-11-20T02:04:02;23.40;;;16.57;;
55134;SDS011;41031;44.750;11.308;2022-11-20T02:06:30;21.53;;;15.77;;
55134;SDS011;41031;44.750;11.308;2022-11-20T02:09:02;24.90;;;15.33;;
55134;SDS011;41031;44.750;11.308;2022-11-20T02:11:30;25.83;;;16.47;;
55134;SDS011;41031;44.750;11.308;2022-11-20T02:13:58;24.07;;;16.17;;
55134;SDS011;41031;44.750;11.308;2022-11-20T02:16:26;24.63;;;15.73;;
55134;SDS011;41031;44.750;11.308;2022-11-20T02:19:04;22.23;;;15.57;;
55134;SDS011;41031;44.750;11.308;2022-11-20T02:24:21;23.73;;;16.13;;
55134;SDS011;41031;44.750;11.308;2022-11-20T02:29:31;30.37;;;15.60;;
55134;SDS011;41031;44.750;11.308;2022-11-20T02:32:02;28.23;;;17.10;;
55134;SDS011;41031;44.750;11.308;2022-11-20T02:34:29;29.27;;;17.50;;
55134;SDS011;41031;44.750;11.308;2022-11-20T02:36:56;27.23;;;17.13;;
55134;SDS011;41031;44.750;11.308;2022-11-20T02:39:25;25.87;;;16.83;;
55134;SDS011;41031;44.750;11.308;2022-11-20T02:41:54;27.63;;;16.33;;
55134;SDS011;41031;44.750;11.308;2022-11-20T02:44:22;26.30;;;16.83;;
55134;SDS011;41031;44.750;11.308;2022-11-20T02:46:49;30.33;;;17.27;;
55134;SDS011;41031;44.750;11.308;2022-11-20T02:49:16;27.97;;;17.77;;
55134;SDS011;41031;44.750;11.308;2022-11-20T02:51:43;24.43;;;16.80;;
55134;SDS011;41031;44.750;11.308;2022-11-20T02:54:10;26.83;;;17.77;;
55134;SDS011;41031;44.750;11.308;2022-11-20T02:56:38;28.53;;;17.97;;
55134;SDS011;41031;44.750;11.308;2022-11-20T02:59:05;26.03;;;17.23;;
55134;SDS011;41031;44.750;11.308;2022-11-20T03:01:33;26.47;;;16.57;;
55134;SDS011;41031;44.750;11.308;2022-11-20T03:04:00;25.67;;;17.33;;
55134;SDS011;41031;44.750;11.308;2022-11-20T03:06:28;28.77;;;16.80;;
55134;SDS011;41031;44.750;11.308;2022-11-20T03:08:55;25.53;;;17.40;;
55134;SDS011;41031;44.750;11.308;2022-11-20T03:11:22;31.67;;;17.60;;
55134;SDS011;41031;44.750;11.308;2022-11-20T03:13:49;26.23;;;17.70;;
55134;SDS011;41031;44.750;11.308;2022-11-20T03:16:17;29.53;;;17.23;;
55134;SDS011;41031;44.750;11.308;2022-11-20T03:18:46;27.67;;;17.67;;
55134;SDS011;41031;44.750;11.308;2022-11-20T03:21:14;33.90;;;18.07;;
55134;SDS011;41031;44.750;11.308;2022-11-20T03:23:41;24.13;;;18.10;;
55134;SDS011;41031;44.750;11.308;2022-11-20T03:28:39;30.17;;;19.03;;
55134;SDS011;41031;44.750;11.308;2022-11-20T03:31:07;28.17;;;18.40;;
55134;SDS011;41031;44.750;11.308;2022-11-20T03:33:35;26.27;;;16.93;;
55134;SDS011;41031;44.750;11.308;2022-11-20T03:36:04;29.33;;;19.33;;
55134;SDS011;41031;44.750;11.308;2022-11-20T03:38:32;28.20;;;18.40;;
55134;SDS011;41031;44.750;11.308;2022-11-20T03:41:00;27.23;;;18.77;;
55134;SDS011;41031;44.750;11.308;2022-11-20T03:43:51;28.33;;;18.93;;
55134;SDS011;41031;44.750;11.308;2022-11-20T03:46:20;29.13;;;18.67;;
55134;SDS011;41031;44.750;11.308;2022-11-20T03:48:47;28.13;;;18.87;;
55134;SDS011;41031;44.750;11.308;2022-11-20T03:53:46;30.63;;;17.73;;
55134;SDS011;41031;44.750;11.308;2022-11-20T03:56:15;27.10;;;17.80;;
55134;SDS011;41031;44.750;11.308;2022-11-20T03:58:42;24.37;;;17.10;;
55134;SDS011;41031;44.750;11.308;2022-11-20T04:01:14;30.83;;;18.80;;
55134;SDS011;41031;44.750;11.308;2022-11-20T04:03:44;31.77;;;18.87;;
55134;SDS011;41031;44.750;11.308;2022-11-20T04:06:12;29.10;;;17.57;;
55134;SDS011;41031;44.750;11.308;2022-11-20T04:08:49;27.50;;;18.83;;
55134;SDS011;41031;44.750;11.308;2022-11-20T04:11:23;35.47;;;20.13;;
55134;SDS011;41031;44.750;11.308;2022-11-20T04:13:52;32.97;;;20.73;;
55134;SDS011;41031;44.750;11.308;2022-11-20T04:16:21;32.87;;;20.33;;
55134;SDS011;41031;44.750;11.308;2022-11-20T04:18:53;34.43;;;20.90;;
55134;SDS011;41031;44.750;11.308;2022-11-20T04:21:22;30.90;;;19.33;;
55134;SDS011;41031;44.750;11.308;2022-11-20T04:23:50;30.33;;;19.37;;
55134;SDS011;41031;44.750;11.308;2022-11-20T04:26:19;28.30;;;19.23;;
55134;SDS011;41031;44.750;11.308;2022-11-20T04:28:47;31.63;;;19.37;;
55134;SDS011;41031;44.750;11.308;2022-11-20T04:31:15;28.73;;;18.40;;
55134;SDS011;41031;44.750;11.308;2022-11-20T04:33:43;29.13;;;19.67;;
55134;SDS011;41031;44.750;11.308;2022-11-20T04:36:18;29.80;;;19.10;;
55134;SDS011;41031;44.750;11.308;2022-11-20T04:38:50;24.90;;;17.53;;
55134;SDS011;41031;44.750;11.308;2022-11-20T04:41:23;30.33;;;19.63;;
55134;SDS011;41031;44.750;11.308;2022-11-20T04:43:53;33.03;;;19.13;;
55134;SDS011;41031;44.750;11.308;2022-11-20T04:46:26;31.20;;;18.97;;
55134;SDS011;41031;44.750;11.308;2022-11-20T04:48:54;31.57;;;18.73;;
55134;SDS011;41031;44.750;11.308;2022-11-20T04:51:21;31.07;;;20.07;;
55134;SDS011;41031;44.750;11.308;2022-11-20T04:53:48;32.73;;;20.60;;
55134;SDS011;41031;44.750;11.308;2022-11-20T04:56:15;30.97;;;19.17;;
55134;SDS011;41031;44.750;11.308;2022-11-20T04:58:42;35.73;;;19.20;;
55134;SDS011;41031;44.750;11.308;2022-11-20T05:01:11;36.23;;;19.83;;
55134;SDS011;41031;44.750;11.308;2022-11-20T05:03:41;34.47;;;20.73;;
55134;SDS011;41031;44.750;11.308;2022-11-20T05:06:09;30.03;;;18.27;;
55134;SDS011;41031;44.750;11.308;2022-11-20T05:08:38;30.13;;;18.07;;
55134;SDS011;41031;44.750;11.308;2022-11-20T05:11:06;35.33;;;20.73;;
55134;SDS011;41031;44.750;11.308;2022-11-20T05:13:41;32.87;;;18.33;;
55134;SDS011;41031;44.750;11.308;2022-11-20T05:16:10;29.50;;;19.07;;
55134;SDS011;41031;44.750;11.308;2022-11-20T05:18:42;32.17;;;19.27;;
55134;SDS011;41031;44.750;11.308;2022-11-20T05:21:09;35.57;;;20.97;;
55134;SDS011;41031;44.750;11.308;2022-11-20T05:23:37;33.73;;;21.57;;
55134;SDS011;41031;44.750;11.308;2022-11-20T05:26:06;39.23;;;23.17;;
55134;SDS011;41031;44.750;11.308;2022-11-20T05:28:34;40.13;;;22.40;;
55134;SDS011;41031;44.750;11.308;2022-11-20T05:31:08;37.63;;;23.50;;
55134;SDS011;41031;44.750;11.308;2022-11-20T05:33:36;39.63;;;24.27;;
55134;SDS011;41031;44.750;11.308;2022-11-20T05:36:07;42.73;;;25.30;;
55134;SDS011;41031;44.750;11.308;2022-11-20T05:38:35;39.97;;;23.97;;
55134;SDS011;41031;44.750;11.308;2022-11-20T05:41:03;37.50;;;23.87;;
55134;SDS011;41031;44.750;11.308;2022-11-20T05:43:35;40.57;;;23.63;;
55134;SDS011;41031;44.750;11.308;2022-11-20T05:46:03;34.80;;;22.77;;
55134;SDS011;41031;44.750;11.308;2022-11-20T05:48:32;37.20;;;22.37;;
55134;SDS011;41031;44.750;11.308;2022-11-20T05:51:00;38.43;;;22.17;;
55134;SDS011;41031;44.750;11.308;2022-11-20T05:53:29;40.00;;;23.33;;
55134;SDS011;41031;44.750;11.308;2022-11-20T05:55:57;39.40;;;23.80;;
55134;SDS011;41031;44.750;11.308;2022-11-20T05:58:24;38.97;;;23.17;;
55134;SDS011;41031;44.750;11.308;2022-11-20T06:00:51;38.83;;;23.90;;
55134;SDS011;41031;44.750;11.308;2022-11-20T06:03:18;42.33;;;23.13;;
55134;SDS011;41031;44.750;11.308;2022-11-20T06:05:45;37.27;;;22.87;;
55134;SDS011;41031;44.750;11.308;2022-11-20T06:08:13;38.10;;;23.43;;
55134;SDS011;41031;44.750;11.308;2022-11-20T06:10:40;45.17;;;24.77;;
55134;SDS011;41031;44.750;11.308;2022-11-20T06:13:07;38.97;;;23.27;;
55134;SDS011;41031;44.750;11.308;2022-11-20T06:15:34;38.07;;;23.37;;
55134;SDS011;41031;44.750;11.308;2022-11-20T06:18:01;33.83;;;22.03;;
55134;SDS011;41031;44.750;11.308;2022-11-20T06:20:28;38.27;;;22.70;;
55134;SDS011;41031;44.750;11.308;2022-11-20T06:22:55;38.23;;;23.83;;
55134;SDS011;41031;44.750;11.308;2022-11-20T06:25:22;39.27;;;23.63;;
55134;SDS011;41031;44.750;11.308;2022-11-20T06:27:49;40.00;;;23.50;;
55134;SDS011;41031;44.750;11.308;2022-11-20T06:30:16;40.50;;;23.63;;
55134;SDS011;41031;44.750;11.308;2022-11-20T06:32:43;42.80;;;25.00;;
55134;SDS011;41031;44.750;11.308;2022-11-20T06:35:11;45.13;;;24.73;;
55134;SDS011;41031;44.750;11.308;2022-11-20T06:37:39;47.03;;;27.40;;
55134;SDS011;41031;44.750;11.308;2022-11-20T06:40:06;46.47;;;26.77;;
55134;SDS011;41031;44.750;11.308;2022-11-20T06:42:33;47.57;;;26.13;;
55134;SDS011;41031;44.750;11.308;2022-11-20T06:45:00;39.27;;;25.60;;
55134;SDS011;41031;44.750;11.308;2022-11-20T06:47:27;42.63;;;25.73;;
55134;SDS011;41031;44.750;11.308;2022-11-20T06:49:54;46.73;;;25.40;;
55134;SDS011;41031;44.750;11.308;2022-11-20T06:52:21;42.20;;;24.97;;
55134;SDS011;41031;44.750;11.308;2022-11-20T06:54:48;38.40;;;23.83;;
55134;SDS011;41031;44.750;11.308;2022-11-20T06:57:15;41.67;;;24.63;;
55134;SDS011;41031;44.750;11.308;2022-11-20T06:59:42;43.03;;;23.63;;
55134;SDS011;41031;44.750;11.308;2022-11-20T07:02:12;40.03;;;24.50;;
55134;SDS011;41031;44.750;11.308;2022-11-20T07:04:39;38.40;;;24.73;;
55134;SDS011;41031;44.750;11.308;2022-11-20T07:07:06;42.00;;;24.73;;
55134;SDS011;41031;44.750;11.308;2022-11-20T07:09:34;44.13;;;25.43;;
55134;SDS011;41031;44.750;11.308;2022-11-20T07:12:01;42.27;;;25.10;;
55134;SDS011;41031;44.750;11.308;2022-11-20T07:14:28;47.27;;;26.13;;
55134;SDS011;41031;44.750;11.308;2022-11-20T07:16:55;42.60;;;25.37;;
55134;SDS011;41031;44.750;11.308;2022-11-20T07:19:22;43.00;;;24.23;;
55134;SDS011;41031;44.750;11.308;2022-11-20T07:21:50;43.23;;;24.87;;
55134;SDS011;41031;44.750;11.308;2022-11-20T07:24:17;43.77;;;25.70;;
55134;SDS011;41031;44.750;11.308;2022-11-20T07:26:47;45.00;;;25.53;;
55134;SDS011;41031;44.750;11.308;2022-11-20T07:29:15;43.03;;;25.47;;
55134;SDS011;41031;44.750;11.308;2022-11-20T07:31:43;48.37;;;27.37;;
55134;SDS011;41031;44.750;11.308;2022-11-20T07:34:10;49.67;;;26.13;;
55134;SDS011;41031;44.750;11.308;2022-11-20T07:36:37;50.20;;;28.17;;
55134;SDS011;41031;44.750;11.308;2022-11-20T07:39:05;51.63;;;28.27;;
55134;SDS011;41031;44.750;11.308;2022-11-20T07:41:32;47.17;;;27.30;;
55134;SDS011;41031;44.750;11.308;2022-11-20T07:43:59;52.67;;;27.40;;
55134;SDS011;41031;44.750;11.308;2022-11-20T07:46:26;47.23;;;27.87;;
55134;SDS011;41031;44.750;11.308;2022-11-20T07:48:53;49.43;;;28.30;;
55134;SDS011;41031;44.750;11.308;2022-11-20T07:51:20;45.70;;;28.10;;
55134;SDS011;41031;44.750;11.308;2022-11-20T07:53:50;49.20;;;28.90;;
55134;SDS011;41031;44.750;11.308;2022-11-20T07:56:17;48.07;;;27.37;;
55134;SDS011;41031;44.750;11.308;2022-11-20T07:58:44;47.33;;;26.37;;
55134;SDS011;41031;44.750;11.308;2022-11-20T08:01:11;46.70;;;29.13;;
55134;SDS011;41031;44.750;11.308;2022-11-20T08:03:39;45.93;;;28.03;;
55134;SDS011;41031;44.750;11.308;2022-11-20T08:06:06;46.03;;;28.17;;
55134;SDS011;41031;44.750;11.308;2022-11-20T08:08:33;43.83;;;27.00;;
55134;SDS011;41031;44.750;11.308;2022-11-20T08:11:07;41.43;;;26.47;;
55134;SDS011;41031;44.750;11.308;2022-11-20T08:13:53;45.30;;;27.17;;
55134;SDS011;41031;44.750;11.308;2022-11-20T08:16:42;51.47;;;28.30;;
55134;SDS011;41031;44.750;11.308;2022-11-20T08:19:10;42.57;;;26.83;;
55134;SDS011;41031;44.750;11.308;2022-11-20T08:21:39;48.07;;;27.47;;
55134;SDS011;41031;44.750;11.308;2022-11-20T08:24:07;44.77;;;26.97;;
55134;SDS011;41031;44.750;11.308;2022-11-20T08:26:36;49.53;;;28.07;;
55134;SDS011;41031;44.750;11.308;2022-11-20T08:29:04;46.13;;;27.73;;
55134;SDS011;41031;44.750;11.308;2022-11-20T08:31:31;43.73;;;26.77;;
55134;SDS011;41031;44.750;11.308;2022-11-20T08:33:59;45.23;;;27.57;;
55134;SDS011;41031;44.750;11.308;2022-11-20T08:36:27;46.93;;;29.00;;
55134;SDS011;41031;44.750;11.308;2022-11-20T08:38:54;43.37;;;28.33;;
55134;SDS011;41031;44.750;11.308;2022-11-20T08:41:22;45.27;;;26.83;;
55134;SDS011;41031;44.750;11.308;2022-11-20T08:43:56;40.87;;;27.53;;
55134;SDS011;41031;44.750;11.308;2022-11-20T08:46:26;42.67;;;26.70;;
55134;SDS011;41031;44.750;11.308;2022-11-20T08:48:54;38.97;;;25.53;;
55134;SDS011;41031;44.750;11.308;2022-11-20T08:51:21;43.03;;;26.50;;
55134;SDS011;41031;44.750;11.308;2022-11-20T08:53:48;46.80;;;28.33;;
55134;SDS011;41031;44.750;11.308;2022-11-20T08:56:15;43.17;;;28.30;;
55134;SDS011;41031;44.750;11.308;2022-11-20T08:58:44;42.73;;;27.50;;
55134;SDS011;41031;44.750;11.308;2022-11-20T09:01:31;43.00;;;26.47;;
55134;SDS011;41031;44.750;11.308;2022-11-20T09:03:58;37.23;;;25.37;;
55134;SDS011;41031;44.750;11.308;2022-11-20T09:06:26;43.70;;;27.53;;
55134;SDS011;41031;44.750;11.308;2022-11-20T09:08:53;41.70;;;26.40;;
55134;SDS011;41031;44.750;11.308;2022-11-20T09:11:21;41.10;;;26.00;;
55134;SDS011;41031;44.750;11.308;2022-11-20T09:13:48;41.87;;;27.03;;
55134;SDS011;41031;44.750;11.308;2022-11-20T09:16:15;41.87;;;25.93;;
55134;SDS011;41031;44.750;11.308;2022-11-20T09:18:42;35.90;;;25.70;;
55134;SDS011;41031;44.750;11.308;2022-11-20T09:21:10;37.90;;;25.33;;
55134;SDS011;41031;44.750;11.308;2022-11-20T09:23:39;38.27;;;26.73;;
55134;SDS011;41031;44.750;11.308;2022-11-20T09:26:07;45.77;;;28.27;;
55134;SDS011;41031;44.750;11.308;2022-11-20T09:28:40;39.47;;;26.10;;
55134;SDS011;41031;44.750;11.308;2022-11-20T09:31:07;39.40;;;25.43;;
55134;SDS011;41031;44.750;11.308;2022-11-20T09:33:35;39.57;;;26.07;;
55134;SDS011;41031;44.750;11.308;2022-11-20T09:36:03;44.57;;;28.03;;
55134;SDS011;41031;44.750;11.308;2022-11-20T09:38:30;43.77;;;27.93;;
55134;SDS011;41031;44.750;11.308;2022-11-20T09:40:58;46.50;;;28.43;;
55134;SDS011;41031;44.750;11.308;2022-11-20T09:54:22;41.97;;;26.80;;
55134;SDS011;41031;44.750;11.308;2022-11-20T09:57:00;42.40;;;26.67;;
55134;SDS011;41031;44.750;11.308;2022-11-20T09:59:46;41.20;;;27.00;;
55134;SDS011;41031;44.750;11.308;2022-11-20T10:07:59;41.23;;;26.87;;
55134;SDS011;41031;44.750;11.308;2022-11-20T10:30:22;39.90;;;27.33;;
55134;SDS011;41031;44.750;11.308;2022-11-20T10:32:52;38.63;;;26.70;;
55134;SDS011;41031;44.750;11.308;2022-11-20T10:35:28;39.83;;;26.47;;
55134;SDS011;41031;44.750;11.308;2022-11-20T10:38:13;39.40;;;26.97;;
55134;SDS011;41031;44.750;11.308;2022-11-20T10:40:45;41.40;;;25.97;;
55134;SDS011;41031;44.750;11.308;2022-11-20T10:43:28;39.47;;;25.73;;
55134;SDS011;41031;44.750;11.308;2022-11-20T10:46:06;41.87;;;26.53;;
55134;SDS011;41031;44.750;11.308;2022-11-20T10:48:40;40.50;;;26.63;;
55134;SDS011;41031;44.750;11.308;2022-11-20T10:56:39;41.03;;;26.20;;
55134;SDS011;41031;44.750;11.308;2022-11-20T11:01:47;39.07;;;26.77;;
55134;SDS011;41031;44.750;11.308;2022-11-20T11:04:31;37.37;;;26.30;;
55134;SDS011;41031;44.750;11.308;2022-11-20T11:09:49;33.70;;;22.37;;
55134;SDS011;41031;44.750;11.308;2022-11-20T11:12:19;38.50;;;25.90;;
55134;SDS011;41031;44.750;11.308;2022-11-20T11:14:49;38.70;;;24.33;;
55134;SDS011;41031;44.750;11.308;2022-11-20T11:17:22;34.97;;;23.67;;
55134;SDS011;41031;44.750;11.308;2022-11-20T11:19:59;31.60;;;22.43;;
55134;SDS011;41031;44.750;11.308;2022-11-20T11:22:46;31.90;;;23.37;;
55134;SDS011;41031;44.750;11.308;2022-11-20T11:25:23;24.80;;;19.10;;
55134;SDS011;41031;44.750;11.308;2022-11-20T11:28:04;36.53;;;22.03;;
55134;SDS011;41031;44.750;11.308;2022-11-20T11:30:42;33.00;;;22.73;;
55134;SDS011;41031;44.750;11.308;2022-11-20T11:33:29;34.40;;;22.63;;
55134;SDS011;41031;44.750;11.308;2022-11-20T11:36:16;35.77;;;22.90;;
55134;SDS011;41031;44.750;11.308;2022-11-20T11:38:50;36.10;;;24.17;;
55134;SDS011;41031;44.750;11.308;2022-11-20T11:41:23;36.47;;;24.87;;
55134;SDS011;41031;44.750;11.308;2022-11-20T11:43:55;29.87;;;20.47;;
55134;SDS011;41031;44.750;11.308;2022-11-20T11:46:54;27.80;;;19.27;;
55134;SDS011;41031;44.750;11.308;2022-11-20T11:49:22;36.53;;;22.97;;
55134;SDS011;41031;44.750;11.308;2022-11-20T12:03:27;25.67;;;16.33;;
55134;SDS011;41031;44.750;11.308;2022-11-20T12:05:51;29.00;;;17.23;;
55134;SDS011;41031;44.750;11.308;2022-11-20T12:08:31;22.10;;;15.83;;
55134;SDS011;41031;44.750;11.308;2022-11-20T12:11:03;24.40;;;16.97;;
55134;SDS011;41031;44.750;11.308;2022-11-20T12:16:04;23.47;;;16.40;;
55134;SDS011;41031;44.750;11.308;2022-11-20T12:18:31;23.93;;;18.67;;
55134;SDS011;41031;44.750;11.308;2022-11-20T12:21:06;26.30;;;18.07;;
55134;SDS011;41031;44.750;11.308;2022-11-20T12:29:55;25.70;;;18.03;;
55134;SDS011;41031;44.750;11.308;2022-11-20T12:35:24;27.47;;;17.00;;
55134;SDS011;41031;44.750;11.308;2022-11-20T13:04:33;25.33;;;16.43;;
55134;SDS011;41031;44.750;11.308;2022-11-20T13:07:13;19.80;;;11.73;;
55134;SDS011;41031;44.750;11.308;2022-11-20T13:09:44;16.43;;;12.47;;
55134;SDS011;41031;44.750;11.308;2022-11-20T13:17:50;12.67;;;9.40;;
55134;SDS011;41031;44.750;11.308;2022-11-20T13:20:21;15.40;;;8.27;;
55134;SDS011;41031;44.750;11.308;2022-11-20T13:22:52;11.80;;;7.60;;
55134;SDS011;41031;44.750;11.308;2022-11-20T13:25:28;13.83;;;8.30;;
55134;SDS011;41031;44.750;11.308;2022-11-20T13:30:47;11.73;;;7.83;;
55134;SDS011;41031;44.750;11.308;2022-11-20T13:33:35;13.20;;;8.87;;
55134;SDS011;41031;44.750;11.308;2022-11-20T13:36:05;13.17;;;8.50;;
55134;SDS011;41031;44.750;11.308;2022-11-20T13:38:47;12.97;;;9.13;;
55134;SDS011;41031;44.750;11.308;2022-11-20T13:44:13;15.80;;;9.77;;
55134;SDS011;41031;44.750;11.308;2022-11-20T13:46:50;13.20;;;8.37;;
55134;SDS011;41031;44.750;11.308;2022-11-20T13:49:25;14.33;;;8.47;;
55134;SDS011;41031;44.750;11.308;2022-11-20T14:00:18;15.60;;;9.70;;
55134;SDS011;41031;44.750;11.308;2022-11-20T14:03:09;14.83;;;9.83;;
55134;SDS011;41031;44.750;11.308;2022-11-20T14:05:39;12.67;;;9.53;;
55134;SDS011;41031;44.750;11.308;2022-11-20T14:08:17;13.30;;;8.90;;
55134;SDS011;41031;44.750;11.308;2022-11-20T14:11:02;13.80;;;9.53;;
55134;SDS011;41031;44.750;11.308;2022-11-20T14:13:50;13.17;;;9.83;;
55134;SDS011;41031;44.750;11.308;2022-11-20T14:16:26;45.50;;;36.13;;
55134;SDS011;41031;44.750;11.308;2022-11-20T14:18:56;23.00;;;20.10;;
55134;SDS011;41031;44.750;11.308;2022-11-20T14:21:28;13.90;;;9.53;;
55134;SDS011;41031;44.750;11.308;2022-11-20T14:24:05;14.50;;;8.30;;
55134;SDS011;41031;44.750;11.308;2022-11-20T14:26:33;23.60;;;13.27;;
55134;SDS011;41031;44.750;11.308;2022-11-20T14:29:01;15.40;;;9.13;;
55134;SDS011;41031;44.750;11.308;2022-11-20T14:31:28;15.13;;;8.17;;
55134;SDS011;41031;44.750;11.308;2022-11-20T14:33:56;10.67;;;6.93;;
55134;SDS011;41031;44.750;11.308;2022-11-20T14:36:24;12.00;;;7.60;;
55134;SDS011;41031;44.750;11.308;2022-11-20T14:38:52;10.67;;;7.50;;
55134;SDS011;41031;44.750;11.308;2022-11-20T14:41:23;15.27;;;8.00;;
55134;SDS011;41031;44.750;11.308;2022-11-20T14:43:52;12.70;;;7.30;;
55134;SDS011;41031;44.750;11.308;2022-11-20T14:46:23;11.40;;;7.77;;
55134;SDS011;41031;44.750;11.308;2022-11-20T14:48:51;11.43;;;7.37;;
55134;SDS011;41031;44.750;11.308;2022-11-20T14:51:30;14.20;;;7.30;;
55134;SDS011;41031;44.750;11.308;2022-11-20T14:56:36;9.60;;;7.83;;
55134;SDS011;41031;44.750;11.308;2022-11-20T14:59:03;12.77;;;8.10;;
55134;SDS011;41031;44.750;11.308;2022-11-20T15:01:31;11.03;;;7.03;;
55134;SDS011;41031;44.750;11.308;2022-11-20T15:04:00;12.20;;;7.67;;
55134;SDS011;41031;44.750;11.308;2022-11-20T15:06:28;13.83;;;8.30;;
55134;SDS011;41031;44.750;11.308;2022-11-20T15:08:55;16.53;;;9.27;;
55134;SDS011;41031;44.750;11.308;2022-11-20T15:11:25;14.90;;;9.07;;
55134;SDS011;41031;44.750;11.308;2022-11-20T15:13:55;14.03;;;9.03;;
55134;SDS011;41031;44.750;11.308;2022-11-20T15:16:23;12.90;;;9.27;;
55134;SDS011;41031;44.750;11.308;2022-11-20T15:18:53;13.07;;;8.43;;
55134;SDS011;41031;44.750;11.308;2022-11-20T15:21:20;14.97;;;10.00;;
55134;SDS011;41031;44.750;11.308;2022-11-20T15:23:47;14.53;;;8.60;;
55134;SDS011;41031;44.750;11.308;2022-11-20T15:26:18;13.07;;;8.97;;
55134;SDS011;41031;44.750;11.308;2022-11-20T15:28:52;13.80;;;9.07;;
55134;SDS011;41031;44.750;11.308;2022-11-20T15:31:21;16.00;;;9.67;;
55134;SDS011;41031;44.750;11.308;2022-11-20T15:33:49;14.10;;;9.20;;
55134;SDS011;41031;44.750;11.308;2022-11-20T15:36:16;13.33;;;9.47;;
55134;SDS011;41031;44.750;11.308;2022-11-20T15:38:44;13.50;;;9.27;;
55134;SDS011;41031;44.750;11.308;2022-11-20T15:41:11;15.60;;;8.80;;
55134;SDS011;41031;44.750;11.308;2022-11-20T15:43:38;17.23;;;9.20;;
55134;SDS011;41031;44.750;11.308;2022-11-20T15:46:06;14.23;;;9.10;;
55134;SDS011;41031;44.750;11.308;2022-11-20T15:48:39;14.87;;;9.03;;
55134;SDS011;41031;44.750;11.308;2022-11-20T15:53:50;16.90;;;11.27;;
55134;SDS011;41031;44.750;11.308;2022-11-20T15:56:17;21.33;;;10.97;;
55134;SDS011;41031;44.750;11.308;2022-11-20T15:58:44;16.20;;;10.47;;
55134;SDS011;41031;44.750;11.308;2022-11-20T16:01:12;16.47;;;9.67;;
55134;SDS011;41031;44.750;11.308;2022-11-20T16:03:41;17.20;;;10.90;;
55134;SDS011;41031;44.750;11.308;2022-11-20T16:06:08;17.87;;;11.47;;
55134;SDS011;41031;44.750;11.308;2022-11-20T16:08:36;15.63;;;10.30;;
55134;SDS011;41031;44.750;11.308;2022-11-20T16:11:03;15.63;;;10.97;;
55134;SDS011;41031;44.750;11.308;2022-11-20T16:13:30;13.97;;;9.80;;
55134;SDS011;41031;44.750;11.308;2022-11-20T16:18:54;12.93;;;9.63;;
55134;SDS011;41031;44.750;11.308;2022-11-20T16:21:21;14.03;;;9.70;;
55134;SDS011;41031;44.750;11.308;2022-11-20T16:23:58;13.80;;;9.53;;
55134;SDS011;41031;44.750;11.308;2022-11-20T16:26:26;17.77;;;11.10;;
55134;SDS011;41031;44.750;11.308;2022-11-20T16:28:53;18.30;;;10.93;;
55134;SDS011;41031;44.750;11.308;2022-11-20T16:31:21;16.50;;;10.47;;
55134;SDS011;41031;44.750;11.308;2022-11-20T16:33:49;17.30;;;11.77;;
55134;SDS011;41031;44.750;11.308;2022-11-20T16:36:20;17.50;;;10.37;;
55134;SDS011;41031;44.750;11.308;2022-11-20T16:38:53;18.43;;;11.80;;
55134;SDS011;41031;44.750;11.308;2022-11-20T16:41:22;18.80;;;12.13;;
55134;SDS011;41031;44.750;11.308;2022-11-20T16:43:50;15.03;;;11.07;;
55134;SDS011;41031;44.750;11.308;2022-11-20T16:46:20;17.13;;;10.43;;
55134;SDS011;41031;44.750;11.308;2022-11-20T16:51:26;17.57;;;11.37;;